createdAt,value
2018-08-07T00:02:07.323Z,4.60
2018-08-07T00:04:35.253Z,3.47
2018-08-07T00:07:03.352Z,3.80
2018-08-07T00:09:31.307Z,3.20
2018-08-07T00:11:58.886Z,3.40
2018-08-07T00:14:26.367Z,3.87
2018-08-07T00:16:54.281Z,3.47
2018-08-07T00:19:22.154Z,3.23
2018-08-07T00:21:49.778Z,3.87
2018-08-07T00:24:17.461Z,3.20
2018-08-07T00:26:45.174Z,3.30
2018-08-07T00:29:13.223Z,2.90
2018-08-07T00:31:40.724Z,3.10
2018-08-07T00:34:08.415Z,3.93
2018-08-07T00:36:36.176Z,3.30
2018-08-07T00:39:04.842Z,2.80
2018-08-07T00:41:32.644Z,3.40
2018-08-07T00:44:00.293Z,3.40
2018-08-07T00:46:27.946Z,3.70
2018-08-07T00:48:55.644Z,3.27
2018-08-07T00:51:24.301Z,3.30
2018-08-07T00:53:52.125Z,3.17
2018-08-07T00:56:19.885Z,3.40
2018-08-07T00:58:47.961Z,3.10
2018-08-07T01:01:15.798Z,3.20
2018-08-07T01:03:43.370Z,3.47
2018-08-07T01:06:11.007Z,2.70
2018-08-07T01:08:38.791Z,3.10
2018-08-07T01:11:07.243Z,3.20
2018-08-07T01:13:35.047Z,3.13
2018-08-07T01:16:02.998Z,3.40
2018-08-07T01:18:31.051Z,3.50
2018-08-07T01:20:58.765Z,3.20
2018-08-07T01:23:27.958Z,3.50
2018-08-07T01:25:56.373Z,3.80
2018-08-07T01:28:24.176Z,3.40
2018-08-07T01:30:51.982Z,3.57
2018-08-07T01:33:19.710Z,3.70
2018-08-07T01:35:47.652Z,3.20
2018-08-07T01:38:15.637Z,4.10
2018-08-07T01:40:43.339Z,4.20
2018-08-07T01:43:11.157Z,3.57
2018-08-07T01:45:38.864Z,4.03
2018-08-07T01:48:11.050Z,4.00
2018-08-07T01:50:43.657Z,3.60
2018-08-07T01:53:11.349Z,3.30
2018-08-07T01:55:38.717Z,3.90
2018-08-07T01:58:06.750Z,3.10
2018-08-07T02:00:34.738Z,3.47
2018-08-07T02:03:02.647Z,3.70
2018-08-07T02:05:30.472Z,3.60
2018-08-07T02:07:58.632Z,4.00
2018-08-07T02:10:26.412Z,3.40
2018-08-07T02:12:54.186Z,3.83
2018-08-07T02:15:22.030Z,3.47
2018-08-07T02:17:49.586Z,3.40
2018-08-07T02:20:18.006Z,3.80
2018-08-07T02:22:46.149Z,4.80
2018-08-07T02:25:16.058Z,4.03
2018-08-07T02:27:44.460Z,3.70
2018-08-07T02:30:12.414Z,3.40
2018-08-07T02:32:40.118Z,3.80
2018-08-07T02:35:08.923Z,3.37
2018-08-07T02:37:36.832Z,4.10
2018-08-07T02:40:08.045Z,3.50
2018-08-07T02:42:36.433Z,3.63
2018-08-07T02:45:10.688Z,3.40
2018-08-07T02:47:41.280Z,3.50
2018-08-07T02:50:13.108Z,3.87
2018-08-07T02:52:42.353Z,3.97
2018-08-07T02:55:12.394Z,4.30
2018-08-07T02:57:41.431Z,4.10
2018-08-07T03:00:12.032Z,3.93
2018-08-07T03:02:40.330Z,3.80
2018-08-07T03:05:10.311Z,3.63
2018-08-07T03:07:38.038Z,3.53
2018-08-07T03:10:06.887Z,4.10
2018-08-07T03:12:34.635Z,3.43
2018-08-07T03:15:02.544Z,3.77
2018-08-07T03:17:30.184Z,4.23
2018-08-07T03:19:57.996Z,4.00
2018-08-07T03:22:26.118Z,3.40
2018-08-07T03:24:54.007Z,3.73
2018-08-07T03:27:22.062Z,3.53
2018-08-07T03:29:49.988Z,3.70
2018-08-07T03:32:17.992Z,3.67
2018-08-07T03:34:46.016Z,3.60
2018-08-07T03:37:14.068Z,3.43
2018-08-07T03:39:41.991Z,3.20
2018-08-07T03:42:10.162Z,3.67
2018-08-07T03:44:38.520Z,3.47
2018-08-07T03:47:06.517Z,3.60
2018-08-07T03:49:35.022Z,3.20
2018-08-07T03:52:06.199Z,3.67
2018-08-07T03:54:38.178Z,3.47
2018-08-07T03:57:06.741Z,3.90
2018-08-07T03:59:34.611Z,3.77
2018-08-07T04:02:02.843Z,3.77
2018-08-07T04:04:31.477Z,4.07
2018-08-07T04:06:59.452Z,4.47
2018-08-07T04:09:27.858Z,3.97
2018-08-07T04:11:55.502Z,3.37
2018-08-07T04:14:23.779Z,4.80
2018-08-07T04:16:55.726Z,3.53
2018-08-07T04:19:24.981Z,3.60
2018-08-07T04:21:52.947Z,4.43
2018-08-07T04:24:21.035Z,5.60
2018-08-07T04:26:48.882Z,4.77
2018-08-07T04:29:17.344Z,4.10
2018-08-07T04:31:47.073Z,3.87
2018-08-07T04:34:15.599Z,3.77
2018-08-07T04:36:43.743Z,3.90
2018-08-07T04:39:13.053Z,3.80
2018-08-07T04:41:41.373Z,4.57
2018-08-07T04:44:09.589Z,3.70
2018-08-07T04:46:37.564Z,3.40
2018-08-07T04:49:05.966Z,4.00
2018-08-07T04:51:34.170Z,4.40
2018-08-07T04:54:02.188Z,3.80
2018-08-07T04:56:30.055Z,3.93
2018-08-07T04:58:58.113Z,3.97
2018-08-07T05:01:26.270Z,4.00
2018-08-07T05:03:54.372Z,3.83
2018-08-07T05:06:22.568Z,4.43
2018-08-07T05:08:51.442Z,3.73
2018-08-07T05:11:19.140Z,4.10
2018-08-07T05:13:47.069Z,3.80
2018-08-07T05:16:15.037Z,4.20
2018-08-07T05:18:43.067Z,4.00
2018-08-07T05:21:11.188Z,3.97
2018-08-07T05:23:39.359Z,4.00
2018-08-07T05:26:07.579Z,4.20
2018-08-07T05:28:35.569Z,4.20
2018-08-07T05:31:03.593Z,4.00
2018-08-07T05:33:32.922Z,3.93
2018-08-07T05:36:00.745Z,3.73
2018-08-07T05:38:28.562Z,4.20
2018-08-07T05:40:56.435Z,4.43
2018-08-07T05:43:24.445Z,3.47
2018-08-07T05:45:52.109Z,4.87
2018-08-07T05:48:19.526Z,3.77
2018-08-07T05:50:47.795Z,4.23
2018-08-07T05:53:15.614Z,4.30
2018-08-07T05:55:43.638Z,4.07
2018-08-07T05:58:11.986Z,4.60
2018-08-07T06:00:39.643Z,4.40
2018-08-07T06:03:10.569Z,3.93
2018-08-07T06:05:43.879Z,4.43
2018-08-07T06:08:14.705Z,4.07
2018-08-07T06:10:44.328Z,4.27
2018-08-07T06:13:14.676Z,4.23
2018-08-07T06:15:44.813Z,4.90
2018-08-07T06:18:16.342Z,5.17
2018-08-07T06:20:48.707Z,5.00
2018-08-07T06:23:19.435Z,4.37
2018-08-07T06:25:50.350Z,5.60
2018-08-07T06:28:23.849Z,5.07
2018-08-07T06:30:53.586Z,4.97
2018-08-07T06:33:21.354Z,5.07
2018-08-07T06:35:48.808Z,5.40
2018-08-07T06:38:16.108Z,6.07
2018-08-07T06:40:43.499Z,4.77
2018-08-07T06:43:10.814Z,5.70
2018-08-07T06:45:38.594Z,4.10
2018-08-07T06:48:06.242Z,5.13
2018-08-07T06:50:33.852Z,4.20
2018-08-07T06:53:01.182Z,4.70
2018-08-07T06:55:28.486Z,6.50
2018-08-07T06:57:57.270Z,4.57
2018-08-07T07:00:25.512Z,4.60
2018-08-07T07:02:53.685Z,5.23
2018-08-07T07:05:21.240Z,4.97
2018-08-07T07:07:48.657Z,5.27
2018-08-07T07:10:16.117Z,4.77
2018-08-07T07:12:44.667Z,5.23
2018-08-07T07:15:13.379Z,4.87
2018-08-07T07:17:40.997Z,4.93
2018-08-07T07:20:09.871Z,5.43
2018-08-07T07:22:37.321Z,4.93
2018-08-07T07:25:08.813Z,5.40
2018-08-07T07:27:40.917Z,4.90
2018-08-07T07:30:12.810Z,5.20
2018-08-07T07:32:43.058Z,4.77
2018-08-07T07:35:13.549Z,4.90
2018-08-07T07:37:41.547Z,4.37
2018-08-07T07:40:09.544Z,5.20
2018-08-07T07:42:40.327Z,4.67
2018-08-07T07:45:15.213Z,5.30
2018-08-07T07:47:45.796Z,5.70
2018-08-07T07:50:17.470Z,5.80
2018-08-07T07:52:48.583Z,6.43
2018-08-07T07:55:18.396Z,4.77
2018-08-07T07:57:49.211Z,5.40
2018-08-07T08:00:23.243Z,5.20
2018-08-07T08:02:51.938Z,5.47
2018-08-07T08:05:24.123Z,5.80
2018-08-07T08:07:55.105Z,5.10
2018-08-07T08:10:26.620Z,5.33
2018-08-07T08:15:32.814Z,5.53
2018-08-07T08:18:04.271Z,5.27
2018-08-07T08:20:35.572Z,5.50
2018-08-07T08:23:05.664Z,4.65
2018-08-07T08:25:37.256Z,5.10
2018-08-07T08:28:09.266Z,5.00
2018-08-07T08:30:40.064Z,4.87
2018-08-07T08:33:11.627Z,4.87
2018-08-07T08:35:42.740Z,4.97
2018-08-07T08:38:13.618Z,4.67
2018-08-07T08:40:45.833Z,4.75
2018-08-07T08:43:18.390Z,4.80
2018-08-07T08:45:46.086Z,5.00
2018-08-07T08:48:13.489Z,4.70
2018-08-07T08:50:40.990Z,5.10
2018-08-07T08:53:08.341Z,5.53
2018-08-07T08:55:35.686Z,5.60
2018-08-07T08:58:03.014Z,4.87
2018-08-07T09:00:30.981Z,5.50
2018-08-07T09:02:58.986Z,5.50
2018-08-07T09:05:26.420Z,5.50
2018-08-07T09:07:53.697Z,4.43
2018-08-07T09:10:22.529Z,5.27
2018-08-07T09:12:50.409Z,5.23
2018-08-07T09:15:18.790Z,4.67
2018-08-07T09:17:46.187Z,4.43
2018-08-07T09:20:21.724Z,4.87
2018-08-07T09:22:52.669Z,5.03
2018-08-07T09:25:25.102Z,4.60
2018-08-07T09:27:52.950Z,5.20
2018-08-07T09:30:25.714Z,4.53
2018-08-07T09:32:54.353Z,5.20
2018-08-07T09:35:22.638Z,5.10
2018-08-07T09:37:50.491Z,4.57
2018-08-07T09:40:18.860Z,5.07
2018-08-07T09:42:47.764Z,4.67
2018-08-07T09:45:17.198Z,5.37
2018-08-07T09:47:45.612Z,4.63
2018-08-07T09:50:13.543Z,5.07
2018-08-07T09:52:40.908Z,5.13
2018-08-07T09:55:08.895Z,5.57
2018-08-07T09:57:36.255Z,5.57
2018-08-07T10:00:04.777Z,5.40
2018-08-07T10:02:35.463Z,5.67
2018-08-07T10:05:03.107Z,5.07
2018-08-07T10:07:30.444Z,5.40
2018-08-07T10:09:57.746Z,5.40
2018-08-07T10:12:25.133Z,5.10
2018-08-07T10:14:52.563Z,5.57
2018-08-07T10:17:20.118Z,5.10
2018-08-07T10:19:47.421Z,5.43
2018-08-07T10:22:14.729Z,5.83
2018-08-07T10:24:42.026Z,5.53
2018-08-07T10:27:09.298Z,5.83
2018-08-07T10:29:36.704Z,6.13
2018-08-07T10:32:04.414Z,6.20
2018-08-07T10:34:31.745Z,5.93
2018-08-07T10:36:59.235Z,7.00
2018-08-07T10:39:26.610Z,5.63
2018-08-07T10:41:53.992Z,5.73
2018-08-07T10:44:21.280Z,6.07
2018-08-07T10:46:48.843Z,6.13
2018-08-07T10:49:16.473Z,6.17
2018-08-07T10:51:43.892Z,5.73
2018-08-07T10:54:11.242Z,6.30
2018-08-07T10:56:38.669Z,6.47
2018-08-07T10:59:06.107Z,5.40
2018-08-07T11:01:34.491Z,5.90
2018-08-07T11:04:01.842Z,5.57
2018-08-07T11:06:29.146Z,6.20
2018-08-07T11:08:56.507Z,5.80
2018-08-07T11:11:24.656Z,6.07
2018-08-07T11:13:52.163Z,6.10
2018-08-07T11:16:19.390Z,5.57
2018-08-07T11:18:46.845Z,6.47
2018-08-07T11:21:14.141Z,5.93
2018-08-07T11:23:41.440Z,6.57
2018-08-07T11:26:08.822Z,6.93
2018-08-07T11:28:36.198Z,5.57
2018-08-07T11:31:03.584Z,6.47
2018-08-07T11:33:31.818Z,6.37
2018-08-07T11:35:59.242Z,6.60
2018-08-07T11:38:26.673Z,5.73
2018-08-07T11:40:54.293Z,6.87
2018-08-07T11:43:21.590Z,6.23
2018-08-07T11:45:48.878Z,6.50
2018-08-07T11:48:16.731Z,6.47
2018-08-07T11:50:44.519Z,7.70
2018-08-07T11:53:14.505Z,7.47
2018-08-07T11:55:42.366Z,7.40
2018-08-07T11:58:12.194Z,7.30
2018-08-07T12:00:42.290Z,7.00
2018-08-07T12:03:12.922Z,7.17
2018-08-07T12:05:41.807Z,7.40
2018-08-07T12:08:10.387Z,7.40
2018-08-07T12:10:47.171Z,7.30
2018-08-07T12:13:15.628Z,7.77
2018-08-07T12:15:44.827Z,7.17
2018-08-07T12:18:12.517Z,7.10
2018-08-07T12:20:41.010Z,7.27
2018-08-07T12:23:13.944Z,7.53
2018-08-07T12:25:48.310Z,7.10
2018-08-07T12:28:15.914Z,6.83
2018-08-07T12:30:47.366Z,7.03
2018-08-07T12:33:16.129Z,6.93
2018-08-07T12:35:46.698Z,6.93
2018-08-07T12:38:16.804Z,7.43
2018-08-07T12:40:44.736Z,7.60
2018-08-07T12:43:15.303Z,7.17
2018-08-07T12:45:43.541Z,7.30
2018-08-07T12:48:12.276Z,7.00
2018-08-07T12:50:40.329Z,7.27
2018-08-07T12:53:07.796Z,6.87
2018-08-07T12:55:35.890Z,6.50
2018-08-07T12:58:03.261Z,6.50
2018-08-07T13:00:31.399Z,6.93
2018-08-07T13:02:58.708Z,6.80
2018-08-07T13:05:26.082Z,7.60
2018-08-07T13:07:53.477Z,6.60
2018-08-07T13:10:21.662Z,6.80
2018-08-07T13:12:49.744Z,6.33
2018-08-07T13:15:18.389Z,5.90
2018-08-07T13:17:46.155Z,6.70
2018-08-07T13:20:13.571Z,6.60
2018-08-07T13:22:41.958Z,6.80
2018-08-07T13:25:10.393Z,7.90
2018-08-07T13:27:38.199Z,6.87
2018-08-07T13:30:07.007Z,6.00
2018-08-07T13:32:34.292Z,6.03
2018-08-07T13:35:01.645Z,6.03
2018-08-07T13:37:29.021Z,6.60
2018-08-07T13:39:56.422Z,5.50
2018-08-07T13:42:23.786Z,6.37
2018-08-07T13:44:51.084Z,6.33
2018-08-07T13:47:18.442Z,6.30
2018-08-07T13:49:47.048Z,6.37
2018-08-07T13:52:21.033Z,6.20
2018-08-07T13:54:53.221Z,6.23
2018-08-07T13:57:20.809Z,6.20
2018-08-07T13:59:48.168Z,6.33
2018-08-07T14:02:15.550Z,5.57
2018-08-07T14:04:42.915Z,6.67
2018-08-07T14:07:10.291Z,5.87
2018-08-07T14:09:37.786Z,5.93
2018-08-07T14:12:05.740Z,5.97
2018-08-07T14:14:33.331Z,5.90
2018-08-07T14:17:00.919Z,5.77
2018-08-07T14:19:28.561Z,5.57
2018-08-07T14:21:56.077Z,5.53
2018-08-07T14:24:23.563Z,5.67
2018-08-07T14:26:51.147Z,5.50
2018-08-07T14:29:18.885Z,5.60
2018-08-07T14:31:46.372Z,5.30
2018-08-07T14:34:13.893Z,5.33
2018-08-07T14:36:41.551Z,5.43
2018-08-07T14:39:09.950Z,5.27
2018-08-07T14:41:37.860Z,5.67
2018-08-07T14:44:06.091Z,5.07
2018-08-07T14:46:42.098Z,5.37
2018-08-07T14:49:17.544Z,5.27
2018-08-07T14:51:45.578Z,5.40
2018-08-07T14:54:13.233Z,5.47
2018-08-07T14:56:40.543Z,5.60
2018-08-07T14:59:07.971Z,6.03
2018-08-07T15:01:35.439Z,5.40
2018-08-07T15:04:02.956Z,4.93
2018-08-07T15:06:31.951Z,5.50
2018-08-07T15:08:59.638Z,5.27
2018-08-07T15:11:27.276Z,5.90
2018-08-07T15:13:55.231Z,5.30
2018-08-07T15:16:27.569Z,6.00
2018-08-07T15:18:58.891Z,5.93
2018-08-07T15:21:31.328Z,5.67
2018-08-07T15:24:05.138Z,5.73
2018-08-07T15:26:32.791Z,5.60
2018-08-07T15:29:04.828Z,5.70
2018-08-07T15:31:35.872Z,5.70
2018-08-07T15:34:05.906Z,5.50
2018-08-07T15:36:38.347Z,6.07
2018-08-07T15:39:11.570Z,5.83
2018-08-07T15:41:41.872Z,5.33
2018-08-07T15:44:12.796Z,5.77
2018-08-07T15:46:40.335Z,5.97
2018-08-07T15:49:10.407Z,5.40
2018-08-07T15:51:42.954Z,5.83
2018-08-07T15:54:12.820Z,6.13
2018-08-07T15:56:43.823Z,6.43
2018-08-07T15:59:16.503Z,6.60
2018-08-07T16:01:46.711Z,5.57
2018-08-07T16:04:19.128Z,5.70
2018-08-07T16:06:52.259Z,5.87
2018-08-07T16:09:21.188Z,6.20
2018-08-07T16:11:53.130Z,5.97
2018-08-07T16:14:23.453Z,6.20
2018-08-07T16:16:55.758Z,6.33
2018-08-07T16:19:27.743Z,6.40
2018-08-07T16:22:05.500Z,5.97
2018-08-07T16:24:33.135Z,6.40
2018-08-07T16:27:00.494Z,6.63
2018-08-07T16:29:28.042Z,5.77
2018-08-07T16:31:55.501Z,6.20
2018-08-07T16:34:23.281Z,6.23
2018-08-07T16:36:50.975Z,6.60
2018-08-07T16:39:18.558Z,6.63
2018-08-07T16:41:45.845Z,5.93
2018-08-07T16:44:13.185Z,6.80
2018-08-07T16:46:41.395Z,6.33
2018-08-07T16:49:09.136Z,6.60
2018-08-07T16:51:36.974Z,6.50
2018-08-07T16:54:05.080Z,6.30
2018-08-07T16:56:32.705Z,6.27
2018-08-07T16:59:00.317Z,6.53
2018-08-07T17:01:28.001Z,6.60
2018-08-07T17:03:55.689Z,6.43
2018-08-07T17:06:23.355Z,7.23
2018-08-07T17:08:51.078Z,6.70
2018-08-07T17:11:18.862Z,5.93
2018-08-07T17:13:47.050Z,6.40
2018-08-07T17:16:14.645Z,6.60
2018-08-07T17:18:42.274Z,6.60
2018-08-07T17:21:10.226Z,6.47
2018-08-07T17:23:37.925Z,6.93
2018-08-07T17:26:05.817Z,6.93
2018-08-07T17:28:33.582Z,6.30
2018-08-07T17:31:01.480Z,6.00
2018-08-07T17:33:29.237Z,6.50
2018-08-07T17:35:56.587Z,6.13
2018-08-07T17:38:23.887Z,6.60
2018-08-07T17:40:51.274Z,7.13
2018-08-07T17:43:18.643Z,6.73
2018-08-07T17:45:46.093Z,6.53
2018-08-07T17:48:13.681Z,6.70
2018-08-07T17:50:41.125Z,6.43
2018-08-07T17:53:08.437Z,6.80
2018-08-07T17:55:35.777Z,6.60
2018-08-07T17:58:03.192Z,7.67
2018-08-07T18:00:31.076Z,5.90
2018-08-07T18:02:58.536Z,6.10
2018-08-07T18:05:25.976Z,6.00
2018-08-07T18:07:54.882Z,6.53
2018-08-07T18:10:22.733Z,7.40
2018-08-07T18:12:50.386Z,6.70
2018-08-07T18:15:18.910Z,6.67
2018-08-07T18:17:46.948Z,6.83
2018-08-07T18:20:16.067Z,6.80
2018-08-07T18:22:43.580Z,6.70
2018-08-07T18:25:11.162Z,6.90
2018-08-07T18:27:38.882Z,6.07
2018-08-07T18:30:07.101Z,6.73
2018-08-07T18:32:34.790Z,6.23
2018-08-07T18:35:02.096Z,6.30
2018-08-07T18:37:29.421Z,6.63
2018-08-07T18:39:56.758Z,6.43
2018-08-07T18:42:24.097Z,6.53
2018-08-07T18:44:51.580Z,7.77
2018-08-07T18:47:18.844Z,6.70
2018-08-07T18:49:46.125Z,8.67
2018-08-07T18:52:13.446Z,7.80
2018-08-07T18:54:40.784Z,7.13
2018-08-07T18:57:08.119Z,7.43
2018-08-07T18:59:35.465Z,6.80
2018-08-07T19:02:02.814Z,7.63
2018-08-07T19:04:30.168Z,9.10
2018-08-07T19:06:57.617Z,8.90
2018-08-07T19:09:25.004Z,9.13
2018-08-07T19:11:52.285Z,9.00
2018-08-07T19:14:19.712Z,8.80
2018-08-07T19:16:46.981Z,8.60
2018-08-07T19:19:14.263Z,8.20
2018-08-07T19:21:41.773Z,8.40
2018-08-07T19:24:09.174Z,8.77
2018-08-07T19:26:36.503Z,7.30
2018-08-07T19:29:03.830Z,8.30
2018-08-07T19:31:31.177Z,8.10
2018-08-07T19:33:58.558Z,9.27
2018-08-07T19:36:26.097Z,9.60
2018-08-07T19:38:53.568Z,8.87
2018-08-07T19:41:20.953Z,9.20
2018-08-07T19:43:48.274Z,9.53
2018-08-07T19:46:15.781Z,8.33
2018-08-07T19:48:43.097Z,9.50
2018-08-07T19:51:10.548Z,8.63
2018-08-07T19:53:37.898Z,8.40
2018-08-07T19:56:05.520Z,8.40
2018-08-07T19:58:32.778Z,8.03
2018-08-07T20:01:00.088Z,8.20
2018-08-07T20:03:28.559Z,8.53
2018-08-07T20:05:56.605Z,8.60
2018-08-07T20:08:24.512Z,9.53
2018-08-07T20:10:51.850Z,8.80
2018-08-07T20:13:20.878Z,9.40
2018-08-07T20:15:49.398Z,8.73
2018-08-07T20:18:17.522Z,8.27
2018-08-07T20:20:45.483Z,9.27
2018-08-07T20:23:12.825Z,9.40
2018-08-07T20:25:40.161Z,9.00
2018-08-07T20:28:08.536Z,9.87
2018-08-07T20:30:36.314Z,9.23
2018-08-07T20:33:04.188Z,9.07
2018-08-07T20:35:33.288Z,8.73
2018-08-07T20:38:01.004Z,8.80
2018-08-07T20:40:29.100Z,9.90
2018-08-07T20:42:57.463Z,9.40
2018-08-07T20:45:25.157Z,10.20
2018-08-07T20:47:52.868Z,10.47
2018-08-07T20:50:22.030Z,10.50
2018-08-07T20:52:49.564Z,10.87
2018-08-07T20:55:17.614Z,11.80
2018-08-07T20:57:45.117Z,11.03
2018-08-07T21:00:14.245Z,11.30
2018-08-07T21:02:41.861Z,10.13
2018-08-07T21:05:09.195Z,11.17
2018-08-07T21:07:37.064Z,11.03
2018-08-07T21:10:05.083Z,10.50
2018-08-07T21:12:32.434Z,10.73
2018-08-07T21:14:59.785Z,11.20
2018-08-07T21:17:27.072Z,11.33
2018-08-07T21:19:54.381Z,13.43
2018-08-07T21:22:21.766Z,12.07
2018-08-07T21:24:49.094Z,11.60
2018-08-07T21:27:16.473Z,11.00
2018-08-07T21:29:43.804Z,11.60
2018-08-07T21:32:11.143Z,12.43
2018-08-07T21:34:38.740Z,11.83
2018-08-07T21:37:06.307Z,12.90
2018-08-07T21:39:34.212Z,12.63
2018-08-07T21:42:02.112Z,12.30
2018-08-07T21:44:29.494Z,12.53
2018-08-07T21:46:56.780Z,12.70
2018-08-07T21:49:24.120Z,12.70
2018-08-07T21:51:51.404Z,12.10
2018-08-07T21:54:18.719Z,12.77
2018-08-07T21:56:46.089Z,13.10
2018-08-07T21:59:13.926Z,11.40
2018-08-07T22:01:41.266Z,13.07
2018-08-07T22:04:08.584Z,11.93
2018-08-07T22:06:35.981Z,12.47
2018-08-07T22:09:03.755Z,11.77
2018-08-07T22:11:31.223Z,13.07
2018-08-07T22:13:58.543Z,12.87
2018-08-07T22:16:25.820Z,12.83
2018-08-07T22:18:53.161Z,12.93
2018-08-07T22:21:20.479Z,13.10
2018-08-07T22:23:47.789Z,12.43
2018-08-07T22:26:15.105Z,12.60
2018-08-07T22:28:42.501Z,13.20
2018-08-07T22:31:09.812Z,12.20
2018-08-07T22:33:37.169Z,13.53
2018-08-07T22:36:04.748Z,13.80
2018-08-07T22:38:32.077Z,12.67
2018-08-07T22:40:59.502Z,13.37
2018-08-07T22:43:26.802Z,13.03
2018-08-07T22:45:54.117Z,13.67
2018-08-07T22:48:21.613Z,13.27
2018-08-07T22:50:48.906Z,13.30
2018-08-07T22:53:17.147Z,13.20
2018-08-07T22:55:48.234Z,13.83
2018-08-07T22:58:15.785Z,13.90
2018-08-07T23:00:45.058Z,14.13
2018-08-07T23:03:13.702Z,12.83
2018-08-07T23:05:41.965Z,13.30
2018-08-07T23:08:09.605Z,12.40
2018-08-07T23:10:37.077Z,12.70
2018-08-07T23:13:05.434Z,13.57
2018-08-07T23:15:32.872Z,13.50
2018-08-07T23:18:00.290Z,13.73
2018-08-07T23:20:27.701Z,13.73
2018-08-07T23:22:56.003Z,12.80
2018-08-07T23:25:23.869Z,12.77
2018-08-07T23:27:51.317Z,13.30
2018-08-07T23:30:19.582Z,12.83
2018-08-07T23:32:46.961Z,13.23
2018-08-07T23:35:14.796Z,12.27
2018-08-07T23:37:42.361Z,12.37
2018-08-07T23:40:10.724Z,13.07
2018-08-07T23:42:38.527Z,12.93
2018-08-07T23:45:06.384Z,12.70
2018-08-07T23:47:33.854Z,12.63
2018-08-07T23:50:01.302Z,12.70
2018-08-07T23:52:28.737Z,13.00
2018-08-07T23:54:56.011Z,13.70
2018-08-07T23:57:23.967Z,12.27
2018-08-07T23:59:51.348Z,13.03
